sensor_id;sensor_type;location;lat;lon;timestamp;pressure;altitude;pressure_sealevel;temperature;humidity
23339;BME280;11841;49.368;20.962;2022-10-31T00:01:00;96333.69;;;9.61;100.00
23339;BME280;11841;49.368;20.962;2022-10-31T00:03:27;96330.84;;;9.63;100.00
23339;BME280;11841;49.368;20.962;2022-10-31T00:05:53;96323.72;;;9.63;100.00
23339;BME280;11841;49.368;20.962;2022-10-31T00:08:19;96323.72;;;9.63;100.00
23339;BME280;11841;49.368;20.962;2022-10-31T00:10:46;96326.75;;;9.60;100.00
23339;BME280;11841;49.368;20.962;2022-10-31T00:13:13;96324.09;;;9.60;100.00
23339;BME280;11841;49.368;20.962;2022-10-31T00:15:40;96322.91;;;9.63;100.00
23339;BME280;11841;49.368;20.962;2022-10-31T00:18:07;96324.72;;;9.62;100.00
23339;BME280;11841;49.368;20.962;2022-10-31T00:20:33;96323.69;;;9.57;100.00
23339;BME280;11841;49.368;20.962;2022-10-31T00:23:00;96320.22;;;9.56;100.00
23339;BME280;11841;49.368;20.962;2022-10-31T00:25:27;96319.19;;;9.57;100.00
23339;BME280;11841;49.368;20.962;2022-10-31T00:27:54;96318.41;;;9.57;100.00
23339;BME280;11841;49.368;20.962;2022-10-31T00:30:21;96315.13;;;9.55;100.00
23339;BME280;11841;49.368;20.962;2022-10-31T00:32:48;96317.97;;;9.53;100.00
23339;BME280;11841;49.368;20.962;2022-10-31T00:35:14;96315.50;;;9.52;100.00
23339;BME280;11841;49.368;20.962;2022-10-31T00:37:41;96308.56;;;9.51;100.00
23339;BME280;11841;49.368;20.962;2022-10-31T00:40:08;96316.31;;;9.52;100.00
23339;BME280;11841;49.368;20.962;2022-10-31T00:42:34;96303.72;;;9.54;100.00
23339;BME280;11841;49.368;20.962;2022-10-31T00:45:00;96310.16;;;9.45;100.00
23339;BME280;11841;49.368;20.962;2022-10-31T00:47:27;96312.22;;;9.43;100.00
23339;BME280;11841;49.368;20.962;2022-10-31T00:49:53;96311.19;;;9.44;100.00
23339;BME280;11841;49.368;20.962;2022-10-31T00:52:20;96309.38;;;9.45;100.00
23339;BME280;11841;49.368;20.962;2022-10-31T00:54:46;96316.06;;;9.41;100.00
23339;BME280;11841;49.368;20.962;2022-10-31T00:57:12;96305.66;;;9.39;100.00
23339;BME280;11841;49.368;20.962;2022-10-31T00:59:39;96314.22;;;9.41;100.00
23339;BME280;11841;49.368;20.962;2022-10-31T01:02:05;96315.22;;;9.40;100.00
23339;BME280;11841;49.368;20.962;2022-10-31T01:04:32;96308.13;;;9.41;100.00
23339;BME280;11841;49.368;20.962;2022-10-31T01:06:58;96303.25;;;9.44;100.00
23339;BME280;11841;49.368;20.962;2022-10-31T01:09:24;96308.97;;;9.48;100.00
23339;BME280;11841;49.368;20.962;2022-10-31T01:11:51;96309.81;;;9.48;100.00
23339;BME280;11841;49.368;20.962;2022-10-31T01:14:17;96304.66;;;9.47;100.00
23339;BME280;11841;49.368;20.962;2022-10-31T01:16:44;96311.63;;;9.48;100.00
23339;BME280;11841;49.368;20.962;2022-10-31T01:19:10;96314.28;;;9.48;100.00
23339;BME280;11841;49.368;20.962;2022-10-31T01:21:37;96315.84;;;9.42;100.00
23339;BME280;11841;49.368;20.962;2022-10-31T01:24:03;96310.56;;;9.42;100.00
23339;BME280;11841;49.368;20.962;2022-10-31T01:26:31;96306.91;;;9.43;100.00
23339;BME280;11841;49.368;20.962;2022-10-31T01:29:02;96313.22;;;9.42;100.00
23339;BME280;11841;49.368;20.962;2022-10-31T01:31:30;96301.19;;;9.40;100.00
23339;BME280;11841;49.368;20.962;2022-10-31T01:33:57;96304.00;;;9.38;100.00
23339;BME280;11841;49.368;20.962;2022-10-31T01:36:30;96301.75;;;9.35;100.00
23339;BME280;11841;49.368;20.962;2022-10-31T01:39:01;96304.41;;;9.35;100.00
23339;BME280;11841;49.368;20.962;2022-10-31T01:41:29;96304.41;;;9.35;100.00
23339;BME280;11841;49.368;20.962;2022-10-31T01:43:57;96310.31;;;9.37;100.00
23339;BME280;11841;49.368;20.962;2022-10-31T01:46:29;96309.50;;;9.37;100.00
23339;BME280;11841;49.368;20.962;2022-10-31T01:48:57;96307.06;;;9.35;100.00
23339;BME280;11841;49.368;20.962;2022-10-31T01:51:26;96300.13;;;9.34;100.00
23339;BME280;11841;49.368;20.962;2022-10-31T01:53:55;96301.53;;;9.30;100.00
23339;BME280;11841;49.368;20.962;2022-10-31T01:56:24;96306.00;;;9.30;100.00
23339;BME280;11841;49.368;20.962;2022-10-31T01:58:50;96318.00;;;9.26;100.00
23339;BME280;11841;49.368;20.962;2022-10-31T02:01:17;96312.91;;;9.24;100.00
23339;BME280;11841;49.368;20.962;2022-10-31T02:03:44;96315.13;;;9.21;100.00
23339;BME280;11841;49.368;20.962;2022-10-31T02:06:15;96302.28;;;9.18;100.00
23339;BME280;11841;49.368;20.962;2022-10-31T02:08:44;96303.47;;;9.15;100.00
23339;BME280;11841;49.368;20.962;2022-10-31T02:11:11;96315.28;;;9.13;100.00
23339;BME280;11841;49.368;20.962;2022-10-31T02:13:38;96306.06;;;9.09;100.00
23339;BME280;11841;49.368;20.962;2022-10-31T02:16:05;96308.91;;;9.07;100.00
23339;BME280;11841;49.368;20.962;2022-10-31T02:18:32;96313.56;;;9.05;100.00
23339;BME280;11841;49.368;20.962;2022-10-31T02:21:02;96310.31;;;9.03;100.00
23339;BME280;11841;49.368;20.962;2022-10-31T02:23:38;96305.41;;;9.00;100.00
23339;BME280;11841;49.368;20.962;2022-10-31T02:37:19;96311.47;;;8.94;100.00
23339;BME280;11841;49.368;20.962;2022-10-31T02:42:16;96310.84;;;8.92;100.00
23339;BME280;11841;49.368;20.962;2022-10-31T02:44:47;96298.81;;;8.90;100.00
23339;BME280;11841;49.368;20.962;2022-10-31T02:47:22;96305.13;;;8.89;100.00
23339;BME280;11841;49.368;20.962;2022-10-31T02:50:00;96310.59;;;8.87;100.00
23339;BME280;11841;49.368;20.962;2022-10-31T02:52:29;96298.38;;;8.86;100.00
23339;BME280;11841;49.368;20.962;2022-10-31T02:54:56;96309.38;;;8.90;100.00
23339;BME280;11841;49.368;20.962;2022-10-31T02:57:31;96312.66;;;8.92;100.00
23339;BME280;11841;49.368;20.962;2022-10-31T03:00:00;96310.22;;;8.90;100.00
23339;BME280;11841;49.368;20.962;2022-10-31T03:05:09;96309.78;;;8.87;100.00
23339;BME280;11841;49.368;20.962;2022-10-31T03:07:42;96314.63;;;8.83;100.00
23339;BME280;11841;49.368;20.962;2022-10-31T03:10:19;96320.31;;;8.80;100.00
23339;BME280;11841;49.368;20.962;2022-10-31T03:13:02;96313.34;;;8.79;100.00
23339;BME280;11841;49.368;20.962;2022-10-31T03:18:03;96319.03;;;8.76;100.00
23339;BME280;11841;49.368;20.962;2022-10-31T03:20:33;96318.22;;;8.76;100.00
23339;BME280;11841;49.368;20.962;2022-10-31T03:23:02;96314.97;;;8.74;100.00
23339;BME280;11841;49.368;20.962;2022-10-31T03:25:30;96316.97;;;8.72;100.00
23339;BME280;11841;49.368;20.962;2022-10-31T03:27:57;96322.06;;;8.73;100.00
23339;BME280;11841;49.368;20.962;2022-10-31T03:30:26;96325.72;;;8.72;100.00
23339;BME280;11841;49.368;20.962;2022-10-31T03:32:53;96321.44;;;8.71;100.00
23339;BME280;11841;49.368;20.962;2022-10-31T03:35:23;96325.09;;;8.70;100.00
23339;BME280;11841;49.368;20.962;2022-10-31T03:37:49;96325.44;;;8.67;100.00
23339;BME280;11841;49.368;20.962;2022-10-31T03:40:19;96327.28;;;8.67;100.00
23339;BME280;11841;49.368;20.962;2022-10-31T03:42:51;96325.09;;;8.70;100.00
23339;BME280;11841;49.368;20.962;2022-10-31T03:45:23;96321.03;;;8.74;100.00
23339;BME280;11841;49.368;20.962;2022-10-31T03:47:50;96325.97;;;8.77;100.00
23339;BME280;11841;49.368;20.962;2022-10-31T03:50:17;96322.31;;;8.78;100.00
23339;BME280;11841;49.368;20.962;2022-10-31T04:00:25;96333.75;;;8.85;100.00
23339;BME280;11841;49.368;20.962;2022-10-31T04:02:59;96325.84;;;8.85;100.00
23339;BME280;11841;49.368;20.962;2022-10-31T04:05:27;96330.50;;;8.83;100.00
23339;BME280;11841;49.368;20.962;2022-10-31T04:07:55;96333.31;;;8.82;100.00
23339;BME280;11841;49.368;20.962;2022-10-31T04:10:23;96327.22;;;8.81;100.00
23339;BME280;11841;49.368;20.962;2022-10-31T04:13:02;96330.88;;;8.80;100.00
23339;BME280;11841;49.368;20.962;2022-10-31T04:15:30;96336.16;;;8.80;100.00
23339;BME280;11841;49.368;20.962;2022-10-31T04:17:58;96329.84;;;8.81;100.00
23339;BME280;11841;49.368;20.962;2022-10-31T04:20:29;96326.03;;;8.84;100.00
23339;BME280;11841;49.368;20.962;2022-10-31T04:22:56;96330.88;;;8.80;100.00
23339;BME280;11841;49.368;20.962;2022-10-31T04:25:22;96332.69;;;8.80;100.00
23339;BME280;11841;49.368;20.962;2022-10-31T04:27:49;96324.50;;;8.75;100.00
23339;BME280;11841;49.368;20.962;2022-10-31T04:30:15;96336.72;;;8.76;100.00
23339;BME280;11841;49.368;20.962;2022-10-31T04:32:42;96333.66;;;8.72;100.00
23339;BME280;11841;49.368;20.962;2022-10-31T04:35:08;96330.56;;;8.69;100.00
23339;BME280;11841;49.368;20.962;2022-10-31T04:37:35;96338.84;;;8.66;100.00
23339;BME280;11841;49.368;20.962;2022-10-31T04:40:01;96339.25;;;8.63;100.00
23339;BME280;11841;49.368;20.962;2022-10-31T04:42:31;96335.53;;;8.57;100.00
23339;BME280;11841;49.368;20.962;2022-10-31T04:44:57;96346.94;;;8.57;100.00
23339;BME280;11841;49.368;20.962;2022-10-31T04:47:23;96343.19;;;8.52;100.00
23339;BME280;11841;49.368;20.962;2022-10-31T04:49:50;96334.84;;;8.48;100.00
23339;BME280;11841;49.368;20.962;2022-10-31T04:52:16;96337.31;;;8.50;100.00
23339;BME280;11841;49.368;20.962;2022-10-31T04:54:43;96345.59;;;8.47;100.00
23339;BME280;11841;49.368;20.962;2022-10-31T04:57:09;96346.81;;;8.44;100.00
23339;BME280;11841;49.368;20.962;2022-10-31T04:59:35;96338.44;;;8.41;100.00
23339;BME280;11841;49.368;20.962;2022-10-31T05:02:02;96342.25;;;8.38;100.00
23339;BME280;11841;49.368;20.962;2022-10-31T05:04:28;96342.69;;;8.42;100.00
23339;BME280;11841;49.368;20.962;2022-10-31T05:06:55;96344.53;;;8.41;100.00
23339;BME280;11841;49.368;20.962;2022-10-31T05:09:21;96345.97;;;8.44;100.00
23339;BME280;11841;49.368;20.962;2022-10-31T05:11:48;96349.06;;;8.47;100.00
23339;BME280;11841;49.368;20.962;2022-10-31T05:14:14;96352.16;;;8.51;100.00
23339;BME280;11841;49.368;20.962;2022-10-31T05:16:40;96346.88;;;8.51;100.00
23339;BME280;11841;49.368;20.962;2022-10-31T05:19:07;96347.88;;;8.50;100.00
23339;BME280;11841;49.368;20.962;2022-10-31T05:21:33;96347.06;;;8.49;100.00
23339;BME280;11841;49.368;20.962;2022-10-31T05:24:00;96346.22;;;8.49;100.00
23339;BME280;11841;49.368;20.962;2022-10-31T05:26:26;96343.59;;;8.49;100.00
23339;BME280;11841;49.368;20.962;2022-10-31T05:28:52;96359.81;;;8.46;100.00
23339;BME280;11841;49.368;20.962;2022-10-31T05:31:19;96355.19;;;8.48;100.00
23339;BME280;11841;49.368;20.962;2022-10-31T05:33:45;96352.53;;;8.48;100.00
23339;BME280;11841;49.368;20.962;2022-10-31T05:36:12;96357.19;;;8.46;100.00
23339;BME280;11841;49.368;20.962;2022-10-31T05:38:38;96358.19;;;8.45;100.00
23339;BME280;11841;49.368;20.962;2022-10-31T05:41:04;96356.53;;;8.44;100.00
23339;BME280;11841;49.368;20.962;2022-10-31T05:43:31;96358.19;;;8.45;100.00
23339;BME280;11841;49.368;20.962;2022-10-31T05:45:57;96357.81;;;8.48;100.00
23339;BME280;11841;49.368;20.962;2022-10-31T05:48:24;96368.00;;;8.51;100.00
23339;BME280;11841;49.368;20.962;2022-10-31T05:50:50;96361.09;;;8.50;100.00
23339;BME280;11841;49.368;20.962;2022-10-31T05:53:17;96352.91;;;8.45;100.00
23339;BME280;11841;49.368;20.962;2022-10-31T05:55:43;96353.28;;;8.42;100.00
23339;BME280;11841;49.368;20.962;2022-10-31T05:58:10;96353.28;;;8.42;100.00
23339;BME280;11841;49.368;20.962;2022-10-31T06:00:36;96357.91;;;8.40;100.00
23339;BME280;11841;49.368;20.962;2022-10-31T06:03:03;96363.03;;;8.41;100.00
23339;BME280;11841;49.368;20.962;2022-10-31T06:05:30;96365.25;;;8.38;100.00
23339;BME280;11841;49.368;20.962;2022-10-31T06:07:57;96362.88;;;8.28;100.00
23339;BME280;11841;49.368;20.962;2022-10-31T06:10:25;96363.59;;;8.22;100.00
23339;BME280;11841;49.368;20.962;2022-10-31T06:12:52;96359.06;;;8.16;100.00
23339;BME280;11841;49.368;20.962;2022-10-31T06:15:18;96358.25;;;8.16;100.00
23339;BME280;11841;49.368;20.962;2022-10-31T06:18:03;96373.19;;;8.09;100.00
23339;BME280;11841;49.368;20.962;2022-10-31T06:20:30;96371.91;;;8.05;100.00
23339;BME280;11841;49.368;20.962;2022-10-31T06:22:57;96373.19;;;8.09;100.00
23339;BME280;11841;49.368;20.962;2022-10-31T06:25:24;96368.75;;;7.95;100.00
23339;BME280;11841;49.368;20.962;2022-10-31T06:27:51;96373.06;;;7.96;100.00
23339;BME280;11841;49.368;20.962;2022-10-31T06:30:17;96371.50;;;7.87;100.00
23339;BME280;11841;49.368;20.962;2022-10-31T06:32:44;96371.44;;;7.80;100.00
23339;BME280;11841;49.368;20.962;2022-10-31T06:35:10;96382.50;;;7.76;100.00
23339;BME280;11841;49.368;20.962;2022-10-31T06:37:37;96379.59;;;7.71;100.00
23339;BME280;11841;49.368;20.962;2022-10-31T06:40:03;96382.97;;;7.65;100.00
23339;BME280;11841;49.368;20.962;2022-10-31T06:42:30;96389.69;;;7.67;100.00
23339;BME280;11841;49.368;20.962;2022-10-31T06:44:56;96386.06;;;7.68;100.00
23339;BME280;11841;49.368;20.962;2022-10-31T06:47:23;96386.44;;;7.65;100.00
23339;BME280;11841;49.368;20.962;2022-10-31T06:49:49;96388.81;;;7.75;100.00
23339;BME280;11841;49.368;20.962;2022-10-31T06:52:15;96392.72;;;7.79;100.00
23339;BME280;11841;49.368;20.962;2022-10-31T06:54:42;96383.78;;;7.80;100.00
23339;BME280;11841;49.368;20.962;2022-10-31T06:57:08;96392.72;;;7.79;100.00
23339;BME280;11841;49.368;20.962;2022-10-31T06:59:35;96394.34;;;7.80;100.00
23339;BME280;11841;49.368;20.962;2022-10-31T07:02:01;96392.72;;;7.79;100.00
23339;BME280;11841;49.368;20.962;2022-10-31T07:04:28;96394.72;;;7.77;100.00
23339;BME280;11841;49.368;20.962;2022-10-31T07:06:54;96390.09;;;7.79;100.00
23339;BME280;11841;49.368;20.962;2022-10-31T07:09:21;96382.50;;;7.76;100.00
23339;BME280;11841;49.368;20.962;2022-10-31T07:11:47;96387.19;;;7.74;100.00
23339;BME280;11841;49.368;20.962;2022-10-31T07:14:13;96390.63;;;7.74;100.00
23339;BME280;11841;49.368;20.962;2022-10-31T07:16:40;96390.69;;;7.81;100.00
23339;BME280;11841;49.368;20.962;2022-10-31T07:19:06;96380.13;;;7.81;100.00
23339;BME280;11841;49.368;20.962;2022-10-31T07:21:33;96391.06;;;7.78;100.00
23339;BME280;11841;49.368;20.962;2022-10-31T07:23:59;96389.06;;;7.80;100.00
23339;BME280;11841;49.368;20.962;2022-10-31T07:26:25;96390.34;;;7.84;100.00
23339;BME280;11841;49.368;20.962;2022-10-31T07:28:53;96395.34;;;7.93;100.00
23339;BME280;11841;49.368;20.962;2022-10-31T07:31:20;96393.81;;;7.99;100.00
23339;BME280;11841;49.368;20.962;2022-10-31T07:33:46;96395.22;;;8.01;100.00
23339;BME280;11841;49.368;20.962;2022-10-31T07:36:12;96392.66;;;8.08;100.00
23339;BME280;11841;49.368;20.962;2022-10-31T07:38:39;96400.13;;;8.19;100.00
23339;BME280;11841;49.368;20.962;2022-10-31T07:41:05;96405.34;;;8.27;100.00
23339;BME280;11841;49.368;20.962;2022-10-31T07:43:32;96404.78;;;8.31;100.00
23339;BME280;11841;49.368;20.962;2022-10-31T07:45:58;96398.50;;;8.32;100.00
23339;BME280;11841;49.368;20.962;2022-10-31T07:48:24;96409.00;;;8.26;100.00
23339;BME280;11841;49.368;20.962;2022-10-31T07:50:51;96397.03;;;8.15;100.00
23339;BME280;11841;49.368;20.962;2022-10-31T07:53:19;96399.41;;;8.10;100.00
23339;BME280;11841;49.368;20.962;2022-10-31T07:55:46;96407.78;;;8.14;100.00
23339;BME280;11841;49.368;20.962;2022-10-31T07:58:13;96403.75;;;8.18;100.00
23339;BME280;11841;49.368;20.962;2022-10-31T08:00:40;96397.41;;;8.27;100.00
23339;BME280;11841;49.368;20.962;2022-10-31T08:03:08;96405.22;;;8.35;100.00
23339;BME280;11841;49.368;20.962;2022-10-31T08:05:35;96408.13;;;8.40;100.00
23339;BME280;11841;49.368;20.962;2022-10-31T08:08:02;96393.53;;;8.44;100.00
23339;BME280;11841;49.368;20.962;2022-10-31T08:10:29;96401.47;;;8.44;100.00
23339;BME280;11841;49.368;20.962;2022-10-31T08:12:56;96397.00;;;8.44;100.00
23339;BME280;11841;49.368;20.962;2022-10-31T08:15:24;96396.19;;;8.44;100.00
23339;BME280;11841;49.368;20.962;2022-10-31T08:17:50;96397.72;;;8.53;100.00
23339;BME280;11841;49.368;20.962;2022-10-31T08:20:17;96400.16;;;8.54;100.00
23339;BME280;11841;49.368;20.962;2022-10-31T08:22:51;96388.31;;;8.50;100.00
23339;BME280;11841;49.368;20.962;2022-10-31T08:25:18;96389.41;;;8.56;100.00
23339;BME280;11841;49.368;20.962;2022-10-31T08:27:48;96394.56;;;8.64;100.00
23339;BME280;11841;49.368;20.962;2022-10-31T08:30:14;96394.63;;;8.71;100.00
23339;BME280;11841;49.368;20.962;2022-10-31T08:32:40;96394.09;;;8.75;100.00
23339;BME280;11841;49.368;20.962;2022-10-31T08:35:07;96389.03;;;8.80;100.00
23339;BME280;11841;49.368;20.962;2022-10-31T08:37:33;96389.47;;;8.84;100.00
23339;BME280;11841;49.368;20.962;2022-10-31T08:40:00;96397.84;;;8.87;100.00
23339;BME280;11841;49.368;20.962;2022-10-31T08:42:26;96396.47;;;8.91;100.00
23339;BME280;11841;49.368;20.962;2022-10-31T08:44:52;96395.91;;;8.96;100.00
23339;BME280;11841;49.368;20.962;2022-10-31T08:47:19;96391.41;;;8.96;100.00
23339;BME280;11841;49.368;20.962;2022-10-31T08:49:45;96389.16;;;8.93;100.00
23339;BME280;11841;49.368;20.962;2022-10-31T08:52:12;96391.16;;;8.91;100.00
23339;BME280;11841;49.368;20.962;2022-10-31T08:54:39;96395.56;;;8.84;100.00
23339;BME280;11841;49.368;20.962;2022-10-31T08:57:06;96387.63;;;8.84;100.00
23339;BME280;11841;49.368;20.962;2022-10-31T08:59:32;96393.38;;;8.88;100.00
23339;BME280;11841;49.368;20.962;2022-10-31T09:01:59;96384.88;;;8.92;100.00
23339;BME280;11841;49.368;20.962;2022-10-31T09:04:25;96383.91;;;9.00;100.00
23339;BME280;11841;49.368;20.962;2022-10-31T09:06:54;96383.63;;;9.09;100.00
23339;BME280;11841;49.368;20.962;2022-10-31T09:09:40;96388.13;;;9.15;100.00
23339;BME280;11841;49.368;20.962;2022-10-31T09:12:07;96385.53;;;9.22;100.00
23339;BME280;11841;49.368;20.962;2022-10-31T09:14:33;96388.22;;;9.28;100.00
23339;BME280;11841;49.368;20.962;2022-10-31T09:16:59;96381.59;;;9.39;100.00
23339;BME280;11841;49.368;20.962;2022-10-31T09:19:26;96378.84;;;9.53;100.00
23339;BME280;11841;49.368;20.962;2022-10-31T09:21:53;96379.13;;;9.65;100.00
23339;BME280;11841;49.368;20.962;2022-10-31T09:24:20;96381.59;;;9.73;100.00
23339;BME280;11841;49.368;20.962;2022-10-31T09:26:46;96375.94;;;9.82;100.00
23339;BME280;11841;49.368;20.962;2022-10-31T09:29:13;96379.09;;;9.93;100.00
23339;BME280;11841;49.368;20.962;2022-10-31T09:31:39;96380.94;;;9.99;100.00
23339;BME280;11841;49.368;20.962;2022-10-31T09:34:10;96382.78;;;10.05;100.00
23339;BME280;11841;49.368;20.962;2022-10-31T09:36:37;96378.56;;;10.10;100.00
23339;BME280;11841;49.368;20.962;2022-10-31T09:39:03;96385.75;;;10.23;100.00
23339;BME280;11841;49.368;20.962;2022-10-31T09:44:21;96378.69;;;10.43;100.00
23339;BME280;11841;49.368;20.962;2022-10-31T09:46:58;96381.97;;;10.51;100.00
23339;BME280;11841;49.368;20.962;2022-10-31T09:49:48;96392.19;;;10.61;100.00
23339;BME280;11841;49.368;20.962;2022-10-31T09:52:18;96383.25;;;10.68;100.00
23339;BME280;11841;49.368;20.962;2022-10-31T09:55:02;96381.22;;;10.77;100.00
23339;BME280;11841;49.368;20.962;2022-10-31T09:57:34;96384.50;;;10.85;100.00
23339;BME280;11841;49.368;20.962;2022-10-31T10:00:03;96381.88;;;10.92;100.00
23339;BME280;11841;49.368;20.962;2022-10-31T10:02:41;96379.00;;;11.00;100.00
23339;BME280;11841;49.368;20.962;2022-10-31T10:05:13;96383.72;;;11.11;100.00
23339;BME280;11841;49.368;20.962;2022-10-31T10:07:59;96385.75;;;11.22;100.00
23339;BME280;11841;49.368;20.962;2022-10-31T10:10:30;96380.22;;;11.30;100.00
23339;BME280;11841;49.368;20.962;2022-10-31T10:13:09;96382.09;;;11.36;100.00
23339;BME280;11841;49.368;20.962;2022-10-31T10:26:10;96377.19;;;11.72;100.00
23339;BME280;11841;49.368;20.962;2022-10-31T10:28:40;96366.31;;;11.80;100.00
23339;BME280;11841;49.368;20.962;2022-10-31T10:31:18;96376.72;;;11.88;100.00
23339;BME280;11841;49.368;20.962;2022-10-31T10:36:39;96373.44;;;11.99;100.00
23339;BME280;11841;49.368;20.962;2022-10-31T10:39:17;96378.31;;;12.02;100.00
23339;BME280;11841;49.368;20.962;2022-10-31T10:41:46;96371.72;;;12.11;100.00
23339;BME280;11841;49.368;20.962;2022-10-31T10:44:34;96369.84;;;12.18;100.00
23339;BME280;11841;49.368;20.962;2022-10-31T10:47:20;96365.34;;;12.26;100.00
23339;BME280;11841;49.368;20.962;2022-10-31T10:50:18;96361.84;;;12.32;100.00
23339;BME280;11841;49.368;20.962;2022-10-31T10:55:19;96356.03;;;12.48;100.00
23339;BME280;11841;49.368;20.962;2022-10-31T10:58:06;96362.56;;;12.52;100.00
23339;BME280;11841;49.368;20.962;2022-10-31T11:00:43;96354.34;;;12.60;100.00
23339;BME280;11841;49.368;20.962;2022-10-31T11:03:13;96353.91;;;12.63;100.00
23339;BME280;11841;49.368;20.962;2022-10-31T11:08:06;96355.72;;;12.69;100.00
23339;BME280;11841;49.368;20.962;2022-10-31T11:10:33;96360.81;;;12.70;100.00
23339;BME280;11841;49.368;20.962;2022-10-31T11:15:59;96351.75;;;12.78;100.00
23339;BME280;11841;49.368;20.962;2022-10-31T11:18:27;96355.63;;;12.82;100.00
23339;BME280;11841;49.368;20.962;2022-10-31T11:20:56;96358.47;;;12.87;100.00
23339;BME280;11841;49.368;20.962;2022-10-31T11:23:24;96348.59;;;12.94;100.00
23339;BME280;11841;49.368;20.962;2022-10-31T11:25:58;96347.31;;;12.96;100.00
23339;BME280;11841;49.368;20.962;2022-10-31T11:28:25;96344.03;;;13.01;100.00
23339;BME280;11841;49.368;20.962;2022-10-31T11:30:53;96347.50;;;13.08;100.00
23339;BME280;11841;49.368;20.962;2022-10-31T11:33:34;96346.00;;;13.12;100.00
23339;BME280;11841;49.368;20.962;2022-10-31T11:36:03;96345.38;;;13.16;100.00
23339;BME280;11841;49.368;20.962;2022-10-31T11:38:39;96349.28;;;13.14;99.33
23339;BME280;11841;49.368;20.962;2022-10-31T11:41:11;96347.44;;;13.14;99.81
23339;BME280;11841;49.368;20.962;2022-10-31T11:43:39;96338.19;;;13.17;99.39
23339;BME280;11841;49.368;20.962;2022-10-31T11:46:11;96338.78;;;13.19;99.78
23339;BME280;11841;49.368;20.962;2022-10-31T11:48:45;96344.88;;;13.26;99.92
23339;BME280;11841;49.368;20.962;2022-10-31T11:51:12;96344.28;;;13.24;98.88
23339;BME280;11841;49.368;20.962;2022-10-31T11:53:53;96337.50;;;13.28;99.62
23339;BME280;11841;49.368;20.962;2022-10-31T11:56:26;96339.28;;;13.34;99.93
23339;BME280;11841;49.368;20.962;2022-10-31T11:58:57;96332.94;;;13.35;98.89
23339;BME280;11841;49.368;20.962;2022-10-31T12:01:29;96337.22;;;13.36;99.00
23339;BME280;11841;49.368;20.962;2022-10-31T12:04:12;96336.19;;;13.37;98.55
23339;BME280;11841;49.368;20.962;2022-10-31T12:06:40;96337.22;;;13.36;98.38
23339;BME280;11841;49.368;20.962;2022-10-31T12:09:26;96335.31;;;13.43;98.98
23339;BME280;11841;49.368;20.962;2022-10-31T12:14:30;96327.78;;;13.58;98.57
23339;BME280;11841;49.368;20.962;2022-10-31T12:26:59;96330.97;;;13.67;97.31
23339;BME280;11841;49.368;20.962;2022-10-31T12:29:32;96334.75;;;13.59;96.73
23339;BME280;11841;49.368;20.962;2022-10-31T12:34:50;96337.25;;;13.54;97.38
23339;BME280;11841;49.368;20.962;2022-10-31T12:37:31;96329.84;;;13.56;97.17
23339;BME280;11841;49.368;20.962;2022-10-31T12:52:46;96330.38;;;13.47;96.99
23339;BME280;11841;49.368;20.962;2022-10-31T12:57:58;96338.19;;;13.42;96.54
23339;BME280;11841;49.368;20.962;2022-10-31T13:00:28;96343.59;;;13.35;96.22
23339;BME280;11841;49.368;20.962;2022-10-31T13:02:58;96340.75;;;13.30;95.94
23339;BME280;11841;49.368;20.962;2022-10-31T13:05:32;96346.63;;;13.14;96.69
23339;BME280;11841;49.368;20.962;2022-10-31T13:08:07;96347.06;;;13.11;96.96
23339;BME280;11841;49.368;20.962;2022-10-31T13:10:46;96347.91;;;13.05;96.31
23339;BME280;11841;49.368;20.962;2022-10-31T13:13:18;96350.81;;;12.97;96.72
23339;BME280;11841;49.368;20.962;2022-10-31T13:15:47;96344.72;;;12.90;97.12
23339;BME280;11841;49.368;20.962;2022-10-31T13:18:19;96352.53;;;12.85;97.24
23339;BME280;11841;49.368;20.962;2022-10-31T13:20:48;96348.31;;;12.77;97.32
23339;BME280;11841;49.368;20.962;2022-10-31T13:23:27;96354.28;;;12.66;97.81
23339;BME280;11841;49.368;20.962;2022-10-31T13:31:16;96351.94;;;12.52;97.81
23339;BME280;11841;49.368;20.962;2022-10-31T13:33:47;96360.34;;;12.49;98.19
23339;BME280;11841;49.368;20.962;2022-10-31T13:36:18;96349.88;;;12.54;98.50
23339;BME280;11841;49.368;20.962;2022-10-31T13:38:57;96358.44;;;12.56;97.79
23339;BME280;11841;49.368;20.962;2022-10-31T13:46:42;96362.69;;;12.26;98.95
23339;BME280;11841;49.368;20.962;2022-10-31T13:51:52;96364.72;;;12.30;98.59
23339;BME280;11841;49.368;20.962;2022-10-31T13:54:32;96363.94;;;12.23;98.90
23339;BME280;11841;49.368;20.962;2022-10-31T13:56:59;96356.56;;;12.25;98.75
23339;BME280;11841;49.368;20.962;2022-10-31T13:59:27;96356.16;;;12.22;98.73
23339;BME280;11841;49.368;20.962;2022-10-31T14:01:57;96361.50;;;12.15;98.85
23339;BME280;11841;49.368;20.962;2022-10-31T14:04:36;96363.16;;;12.09;99.52
23339;BME280;11841;49.368;20.962;2022-10-31T14:07:07;96366.66;;;12.03;99.69
23339;BME280;11841;49.368;20.962;2022-10-31T14:12:03;96365.28;;;11.94;100.00
23339;BME280;11841;49.368;20.962;2022-10-31T14:14:42;96362.19;;;11.97;99.87
23339;BME280;11841;49.368;20.962;2022-10-31T14:17:15;96364.03;;;11.97;100.00
23339;BME280;11841;49.368;20.962;2022-10-31T14:19:43;96374.25;;;11.93;100.00
23339;BME280;11841;49.368;20.962;2022-10-31T14:22:21;96366.88;;;11.95;100.00
23339;BME280;11841;49.368;20.962;2022-10-31T14:24:49;96359.13;;;11.94;100.00
23339;BME280;11841;49.368;20.962;2022-10-31T14:29:45;96366.91;;;11.89;100.00
23339;BME280;11841;49.368;20.962;2022-10-31T14:32:22;96366.50;;;11.85;100.00
23339;BME280;11841;49.368;20.962;2022-10-31T14:53:11;96374.09;;;11.49;100.00
23339;BME280;11841;49.368;20.962;2022-10-31T14:55:45;96371.66;;;11.48;100.00